Time;durP1;ratioP1;P1;durP2;ratioP2;P2;SDS_P1;SDS_P2;PMS_P1;PMS_P2;Temp;Humidity;BMP_temperature;BMP_pressure;BME280_temperature;BME280_humidity;BME280_pressure;Samples;Min_cycle;Max_cycle;Signal;HPM_P1;HPM_P2
2022/03/13 00:01:01;;;;;;;25.88;12.57;;;;;;;0.52;78.40;98999.75;4994045;28;20149;-82
2022/03/13 00:03:31;;;;;;;24.35;12.23;;;;;;;0.28;80.47;98984.69;4987459;28;20171;-81
2022/03/13 00:05:57;;;;;;;28.23;12.68;;;;;;;0.19;81.07;98993.47;4994858;28;20413;-82
2022/03/13 00:08:30;;;;;;;25.33;11.52;;;;;;;0.26;82.01;99005.38;4997412;28;20050;-81
2022/03/13 00:11:00;;;;;;;33.00;13.32;;;;;;;0.30;82.61;99000.63;5001100;28;20429;-81
2022/03/13 00:13:30;;;;;;;28.33;12.73;;;;;;;0.24;83.42;98993.97;5045046;28;20386;-81
2022/03/13 00:15:58;;;;;;;29.50;12.30;;;;;;;0.33;83.56;99001.25;4988007;28;20065;-81
2022/03/13 00:18:25;;;;;;;26.55;11.98;;;;;;;0.38;81.74;99005.34;4995941;28;20050;-81
2022/03/13 00:20:52;;;;;;;25.63;11.07;;;;;;;0.36;79.73;99000.13;4987522;28;20508;-81
2022/03/13 00:23:19;;;;;;;18.58;8.85;;;;;;;0.28;78.64;98999.91;4997428;28;20103;-81
2022/03/13 00:25:47;;;;;;;22.17;10.23;;;;;;;0.19;79.51;98980.09;4988969;28;20043;-81
2022/03/13 00:28:14;;;;;;;23.27;11.65;;;;;;;0.38;79.52;99002.66;4998376;28;20065;-82
2022/03/13 00:30:41;;;;;;;21.25;10.32;;;;;;;0.26;78.82;98985.81;4992820;28;20042;-82
2022/03/13 00:33:08;;;;;;;24.13;10.97;;;;;;;0.18;81.01;98989.06;4987121;28;20050;-81
2022/03/13 00:35:35;;;;;;;25.80;12.60;;;;;;;0.17;82.33;98998.94;4986898;28;20046;-81
2022/03/13 00:38:01;;;;;;;29.65;11.88;;;;;;;0.02;84.03;98992.16;4987637;28;20505;-82
2022/03/13 00:40:28;;;;;;;22.75;12.00;;;;;;;-0.07;83.98;98992.88;4993096;28;20073;-81
2022/03/13 00:42:56;;;;;;;28.50;13.63;;;;;;;-0.05;84.69;98997.13;4989158;28;20050;-82
2022/03/13 00:45:23;;;;;;;29.60;12.53;;;;;;;-0.12;85.11;98987.91;5035454;28;20284;-81
2022/03/13 00:47:49;;;;;;;24.03;12.50;;;;;;;-0.15;85.47;98972.13;5002995;28;20054;-81
2022/03/13 00:50:16;;;;;;;41.20;12.77;;;;;;;-0.05;84.83;98986.41;5002105;28;20046;-81
2022/03/13 00:52:43;;;;;;;25.03;12.13;;;;;;;-0.21;84.90;98976.13;5003733;28;20050;-81
2022/03/13 00:55:10;;;;;;;27.90;12.80;;;;;;;-0.09;85.32;99000.16;4996834;28;20042;-81
2022/03/13 00:57:36;;;;;;;23.10;11.50;;;;;;;-0.07;85.31;98996.41;4995715;28;20052;-81
2022/03/13 01:00:06;;;;;;;24.13;12.17;;;;;;;-0.06;85.00;98990.09;5010699;28;20046;-82
2022/03/13 01:02:34;;;;;;;29.90;12.20;;;;;;;-0.16;85.31;98986.44;5000563;28;20500;-82
2022/03/13 01:05:00;;;;;;;25.53;11.97;;;;;;;-0.14;84.88;98987.16;4996457;28;20145;-82
2022/03/13 01:07:27;;;;;;;24.07;12.10;;;;;;;-0.19;84.94;98986.69;4986602;28;20425;-81
2022/03/13 01:09:53;;;;;;;21.60;10.77;;;;;;;-0.28;84.70;98971.38;4986901;28;20042;-81
2022/03/13 01:12:20;;;;;;;22.87;10.37;;;;;;;-0.18;84.88;98988.41;4990028;28;20504;-81
2022/03/13 01:14:47;;;;;;;26.43;12.10;;;;;;;-0.45;84.95;98965.53;5000061;28;20042;-81
2022/03/13 01:17:19;;;;;;;23.03;12.13;;;;;;;-0.48;84.88;98971.13;4997216;28;20058;-81
2022/03/13 01:19:46;;;;;;;25.03;12.13;;;;;;;-0.53;84.77;98970.59;5081807;28;20427;-82
2022/03/13 01:22:13;;;;;;;25.17;11.83;;;;;;;-0.53;85.70;98970.59;4995646;28;20052;-81
2022/03/13 01:24:43;;;;;;;25.27;11.40;;;;;;;-0.46;85.09;98969.16;4984710;28;20053;-81
2022/03/13 01:27:11;;;;;;;30.13;11.83;;;;;;;-0.39;85.95;98983.75;4985888;28;20614;-81
2022/03/13 01:29:38;;;;;;;23.17;12.30;;;;;;;-0.60;86.13;98959.56;4986057;28;20042;-81
2022/03/13 01:32:07;;;;;;;27.10;11.27;;;;;;;-0.65;86.08;98961.72;4996205;28;20051;-81
2022/03/13 01:34:47;;;;;;;19.88;11.18;;;;;;;-0.67;86.64;98976.19;4993040;28;20069;-81
2022/03/13 01:37:31;;;;;;;;;;;;;;;-0.70;87.46;98969.25;5009339;28;20042;-81
2022/03/13 01:39:59;;;;;;;19.87;9.77;;;;;;;-0.66;87.34;98964.50;4984756;28;19929;-81
2022/03/13 01:42:26;;;;;;;20.53;9.40;;;;;;;-0.76;84.46;98953.72;5015619;28;20042;-81
2022/03/13 01:44:53;;;;;;;18.20;9.10;;;;;;;-0.91;82.78;98937.88;4987524;28;20073;-81
2022/03/13 01:47:20;;;;;;;18.00;9.60;;;;;;;-0.72;82.68;98957.84;4987765;28;20088;-83
2022/03/13 01:49:48;;;;;;;20.70;9.37;;;;;;;-0.72;83.35;98963.19;4990055;28;20045;-80
2022/03/13 01:52:16;;;;;;;21.73;10.97;;;;;;;-0.60;85.79;98974.75;5018612;28;20065;-80
2022/03/13 01:54:44;;;;;;;23.93;10.50;;;;;;;-0.73;87.53;98951.63;4988682;28;20107;-80
2022/03/13 01:57:17;;;;;;;22.73;11.20;;;;;;;-0.61;86.71;98976.53;5015316;28;20525;-80
2022/03/13 01:59:44;;;;;;;25.00;11.37;;;;;;;-0.74;86.58;98955.31;5025623;28;20040;-80
2022/03/13 02:02:10;;;;;;;21.00;9.93;;;;;;;-0.69;87.19;98965.63;5014177;28;20111;-80
2022/03/13 02:04:37;;;;;;;28.57;11.57;;;;;;;-0.88;87.55;98955.50;4997528;28;20046;-80
2022/03/13 02:07:06;;;;;;;26.07;11.27;;;;;;;-0.91;87.63;98958.41;4994114;28;20046;-80
2022/03/13 02:09:34;;;;;;;26.60;11.05;;;;;;;-0.80;87.84;98966.44;5002588;28;20057;-80
2022/03/13 02:12:00;;;;;;;22.57;10.23;;;;;;;-0.93;88.13;98965.69;5004176;28;20078;-80
2022/03/13 02:14:27;;;;;;;26.87;11.53;;;;;;;-0.92;87.86;98962.03;4991467;28;20042;-80
2022/03/13 02:16:54;;;;;;;25.97;10.53;;;;;;;-0.94;88.05;98963.97;4994151;28;20405;-80
2022/03/13 02:19:21;;;;;;;25.23;13.07;;;;;;;-1.08;88.62;98957.88;4995795;28;20042;-80
2022/03/13 02:21:51;;;;;;;25.47;11.73;;;;;;;-1.13;89.53;98967.16;4997745;28;20049;-80
2022/03/13 02:24:23;;;;;;;25.27;12.13;;;;;;;-1.17;89.93;98957.72;4991676;28;20080;-80
2022/03/13 02:27:01;;;;;;;26.40;11.43;;;;;;;-1.31;89.41;98958.72;5004967;28;20084;-80
2022/03/13 02:29:29;;;;;;;25.07;11.50;;;;;;;-1.32;89.45;98949.06;4990364;28;20046;-80
2022/03/13 02:31:57;;;;;;;21.20;11.00;;;;;;;-1.19;88.66;98968.50;4993497;28;20141;-81
2022/03/13 02:34:24;;;;;;;24.17;11.93;;;;;;;-1.11;87.90;98973.25;5002210;28;20095;-82
2022/03/13 02:37:01;;;;;;;25.10;11.37;;;;;;;-1.26;88.08;98956.59;4995300;28;20100;-80
2022/03/13 02:39:35;;;;;;;24.97;10.97;;;;;;;-1.15;87.27;98971.78;4989386;28;20053;-80
2022/03/13 02:42:04;;;;;;;28.27;11.37;;;;;;;-1.12;86.50;98964.38;5020509;28;20133;-81
2022/03/13 02:44:30;;;;;;;23.43;10.50;;;;;;;-1.15;86.73;98958.44;4990766;28;20066;-81
2022/03/13 02:47:02;;;;;;;23.53;11.67;;;;;;;-1.28;87.21;98951.38;4995386;28;20070;-81
2022/03/13 02:49:33;;;;;;;20.87;11.40;;;;;;;-1.41;87.72;98947.91;4997018;28;20498;-81
2022/03/13 02:52:02;;;;;;;24.27;11.80;;;;;;;-1.34;87.88;98970.50;4988629;28;20581;-81
2022/03/13 02:54:30;;;;;;;20.73;11.52;;;;;;;-1.45;86.87;98946.44;4999068;28;20481;-81
2022/03/13 02:56:58;;;;;;;26.10;12.37;;;;;;;-1.40;86.52;98954.97;4992984;28;20042;-81
2022/03/13 02:59:25;;;;;;;25.07;11.00;;;;;;;-1.44;86.19;98954.31;4994906;28;20073;-81
2022/03/13 03:01:51;;;;;;;22.10;10.93;;;;;;;-1.51;87.81;98946.88;4999323;28;20448;-81
2022/03/13 03:04:21;;;;;;;25.97;10.60;;;;;;;-1.48;87.91;98950.16;4995223;28;20042;-81
2022/03/13 03:06:55;;;;;;;26.92;11.02;;;;;;;-1.41;87.20;98960.41;5002393;28;20049;-80
2022/03/13 03:09:22;;;;;;;26.40;10.90;;;;;;;-1.44;87.82;98953.47;4994950;28;20125;-80
2022/03/13 03:11:50;;;;;;;19.63;10.90;;;;;;;-1.52;86.50;98938.06;4993589;28;20053;-80
2022/03/13 03:14:19;;;;;;;22.37;10.93;;;;;;;-1.51;87.75;98952.22;5017546;28;20051;-80
2022/03/13 03:16:45;;;;;;;20.33;10.40;;;;;;;-1.54;88.35;98947.13;5027281;28;20077;-81
2022/03/13 03:19:12;;;;;;;22.83;10.20;;;;;;;-1.59;87.40;98950.13;5023614;28;20136;-80
2022/03/13 03:21:39;;;;;;;18.90;9.50;;;;;;;-1.40;87.94;98960.28;4994977;28;20053;-81
2022/03/13 03:24:15;;;;;;;25.90;11.27;;;;;;;-1.62;88.19;98943.19;4993741;28;20054;-81
2022/03/13 03:26:43;;;;;;;23.07;10.17;;;;;;;-1.58;88.59;98964.28;4993773;28;20156;-80
2022/03/13 03:29:11;;;;;;;17.60;9.73;;;;;;;-1.59;88.79;98951.94;5006601;28;20061;-80
2022/03/13 03:31:42;;;;;;;24.53;9.73;;;;;;;-1.70;89.68;98953.59;4996715;28;20303;-81
2022/03/13 03:34:13;;;;;;;24.40;10.67;;;;;;;-1.68;90.14;98959.66;4993592;28;20053;-81
2022/03/13 03:36:41;;;;;;;18.07;9.17;;;;;;;-1.77;90.53;98960.31;4990188;28;20212;-81
2022/03/13 03:39:08;;;;;;;22.10;8.63;;;;;;;-1.88;90.83;98963.78;5028636;28;20040;-80
2022/03/13 03:41:35;;;;;;;20.17;9.10;;;;;;;-1.98;90.73;98949.41;5026400;28;20046;-81
2022/03/13 03:44:01;;;;;;;20.07;9.07;;;;;;;-1.84;90.60;98975.88;4994955;28;20046;-81
2022/03/13 03:46:29;;;;;;;17.87;8.83;;;;;;;-1.76;90.57;98963.81;4997770;28;20050;-80
2022/03/13 03:48:56;;;;;;;16.47;8.47;;;;;;;-1.80;91.13;98972.03;4992718;28;20050;-80
2022/03/13 03:51:22;;;;;;;18.73;7.63;;;;;;;-1.88;90.49;98965.56;4992790;28;20489;-81
2022/03/13 03:53:49;;;;;;;12.17;7.37;;;;;;;-1.99;89.15;98953.88;4994467;28;20073;-80
2022/03/13 03:56:16;;;;;;;16.73;7.67;;;;;;;-2.06;88.61;98957.09;4996233;28;20084;-81
2022/03/13 03:58:42;;;;;;;13.43;7.67;;;;;;;-2.02;91.21;98969.22;4998703;28;20042;-80
2022/03/13 04:01:09;;;;;;;20.53;8.73;;;;;;;-1.98;91.87;98968.06;4989796;28;20049;-80
2022/03/13 04:03:36;;;;;;;12.63;7.47;;;;;;;-1.92;91.80;98970.28;5004000;28;20054;-81
2022/03/13 04:06:03;;;;;;;14.23;7.20;;;;;;;-2.15;92.36;98954.13;4990823;28;20046;-81
2022/03/13 04:08:30;;;;;;;15.50;7.50;;;;;;;-2.21;92.71;98945.75;4989496;28;20046;-81
2022/03/13 04:10:56;;;;;;;23.77;8.50;;;;;;;-2.30;93.62;98947.22;4990940;28;20100;-81
2022/03/13 04:13:23;;;;;;;16.70;8.47;;;;;;;-2.27;93.76;98955.00;5022125;28;20040;-81
2022/03/13 04:15:50;;;;;;;17.13;8.83;;;;;;;-2.28;93.17;98949.78;5068510;28;20048;-81
2022/03/13 04:18:16;;;;;;;22.73;10.23;;;;;;;-2.32;93.03;98952.66;4991466;28;20467;-81
2022/03/13 04:20:44;;;;;;;19.63;9.43;;;;;;;-2.26;92.68;98947.84;4990836;28;20049;-81
2022/03/13 04:23:11;;;;;;;24.73;9.33;;;;;;;-2.30;92.42;98947.22;4988668;28;20056;-81
2022/03/13 04:25:38;;;;;;;19.00;8.50;;;;;;;-2.37;92.08;98944.13;4988248;28;20046;-81
2022/03/13 04:28:05;;;;;;;17.83;9.43;;;;;;;-2.25;92.70;98957.56;4992906;28;20393;-81
2022/03/13 04:30:32;;;;;;;24.43;10.03;;;;;;;-2.11;92.34;98968.06;5003919;28;20042;-81
2022/03/13 04:33:00;;;;;;;20.57;9.43;;;;;;;-2.31;92.41;98942.88;5000871;28;20042;-81
2022/03/13 04:35:27;;;;;;;23.40;9.47;;;;;;;-2.22;93.12;98963.50;4991197;28;20072;-81
2022/03/13 04:37:54;;;;;;;19.27;8.90;;;;;;;-2.25;93.78;98965.56;4990640;28;20039;-81
2022/03/13 04:40:21;;;;;;;21.40;9.23;;;;;;;-2.27;93.10;98949.69;4992727;28;20065;-81
2022/03/13 04:42:47;;;;;;;17.83;8.23;;;;;;;-2.23;93.35;98956.50;4998452;28;20396;-81
2022/03/13 04:45:14;;;;;;;16.17;8.30;;;;;;;-2.40;93.35;98951.50;5002702;28;20845;-81
2022/03/13 04:47:40;;;;;;;18.43;8.27;;;;;;;-2.46;92.94;98952.78;5072119;28;20054;-80
2022/03/13 04:50:08;;;;;;;15.90;7.80;;;;;;;-2.50;91.82;98944.16;4990837;28;20398;-81
2022/03/13 04:52:35;;;;;;;17.93;8.70;;;;;;;-2.52;92.85;98939.91;5001396;28;20055;-80
2022/03/13 04:55:03;;;;;;;17.67;8.73;;;;;;;-2.41;93.00;98949.78;4989981;28;20057;-81
2022/03/13 04:57:29;;;;;;;21.40;9.13;;;;;;;-2.39;93.53;98947.91;4989440;28;20046;-80
2022/03/13 04:59:56;;;;;;;18.37;8.37;;;;;;;-2.37;93.26;98959.28;4991209;28;20050;-80
2022/03/13 05:02:22;;;;;;;21.87;8.97;;;;;;;-2.64;93.82;98952.25;4996688;28;20049;-81
2022/03/13 05:04:49;;;;;;;16.67;8.20;;;;;;;-2.66;94.09;98951.50;4993199;28;20045;-80
2022/03/13 05:07:17;;;;;;;19.33;8.23;;;;;;;-2.79;95.43;98962.13;4997229;28;20408;-80
2022/03/13 05:09:43;;;;;;;21.53;8.70;;;;;;;-2.67;94.82;98971.94;4991823;28;20127;-80
2022/03/13 05:12:12;;;;;;;17.33;8.07;;;;;;;-2.61;94.08;98967.16;4995353;28;20046;-80
2022/03/13 05:14:38;;;;;;;17.73;8.57;;;;;;;-2.54;94.24;98971.94;5001292;28;20057;-80
2022/03/13 05:17:05;;;;;;;17.40;7.73;;;;;;;-2.61;93.21;98962.69;4999846;28;20049;-80
2022/03/13 05:19:32;;;;;;;15.97;7.47;;;;;;;-2.58;94.42;98970.44;5006421;28;20042;-80
2022/03/13 05:21:58;;;;;;;18.37;7.40;;;;;;;-2.76;94.29;98967.25;4995262;28;20049;-80
2022/03/13 05:24:25;;;;;;;21.17;8.37;;;;;;;-2.69;94.37;98973.03;4987683;28;20050;-80
2022/03/13 05:26:52;;;;;;;14.47;6.87;;;;;;;-2.72;94.14;98971.41;4987414;28;20046;-80
2022/03/13 05:29:19;;;;;;;16.73;8.00;;;;;;;-2.81;94.46;98977.38;4996883;28;20150;-79
2022/03/13 05:31:46;;;;;;;16.60;7.80;;;;;;;-2.81;94.94;98982.69;4993304;28;20049;-79
2022/03/13 05:34:13;;;;;;;17.93;8.33;;;;;;;-2.84;94.60;98993.53;4987809;28;20061;-81
2022/03/13 05:36:39;;;;;;;16.00;7.87;;;;;;;-2.78;94.25;98984.31;5005492;28;20042;-80
2022/03/13 05:39:06;;;;;;;17.17;7.60;;;;;;;-2.80;94.48;98972.88;5005219;28;20184;-81
2022/03/13 05:41:33;;;;;;;18.00;7.87;;;;;;;-2.77;94.24;98976.22;4996611;28;20050;-80
2022/03/13 05:44:01;;;;;;;17.10;7.97;;;;;;;-2.68;93.98;98994.19;4999864;28;20046;-79
2022/03/13 05:46:28;;;;;;;17.10;7.83;;;;;;;-2.77;94.22;98985.97;5004354;28;20050;-80
2022/03/13 05:48:55;;;;;;;16.33;7.77;;;;;;;-2.81;95.01;98995.16;4995767;28;20050;-80
2022/03/13 05:51:21;;;;;;;17.77;8.00;;;;;;;-2.72;94.98;98986.53;4990264;28;20046;-80
2022/03/13 05:53:48;;;;;;;15.13;8.17;;;;;;;-2.71;94.23;98981.09;5022605;28;20046;-77
2022/03/13 05:56:15;;;;;;;29.57;11.90;;;;;;;-2.75;95.09;98981.44;4993989;28;20512;-80
2022/03/13 05:58:41;;;;;;;28.90;12.10;;;;;;;-2.63;94.57;98999.22;4999257;28;20046;-80
2022/03/13 06:01:08;;;;;;;33.93;12.77;;;;;;;-2.70;94.67;98987.28;5007036;28;20050;-81
2022/03/13 06:03:38;;;;;;;22.63;9.37;;;;;;;-2.78;94.25;98997.59;5009613;28;20071;-80
2022/03/13 06:06:05;;;;;;;19.10;7.72;;;;;;;-2.73;94.64;98998.13;5025973;28;20058;-78
2022/03/13 06:08:32;;;;;;;17.50;8.33;;;;;;;-2.73;94.91;99004.28;5003295;28;20402;-78
2022/03/13 06:10:59;;;;;;;14.23;7.90;;;;;;;-2.76;94.38;98995.69;5000345;28;20050;-78
2022/03/13 06:13:25;;;;;;;17.83;8.77;;;;;;;-2.72;94.16;99008.66;5003029;28;20065;-79
2022/03/13 06:15:52;;;;;;;16.97;7.50;;;;;;;-2.61;94.12;99018.56;4990928;28;20058;-81
2022/03/13 06:18:18;;;;;;;21.70;9.20;;;;;;;-2.57;94.41;99011.25;4996805;28;20073;-81
2022/03/13 06:20:46;;;;;;;22.53;8.57;;;;;;;-2.43;94.32;99005.81;4997311;28;20050;-81
2022/03/13 06:23:13;;;;;;;20.30;10.13;;;;;;;-2.29;93.91;99019.97;4990724;28;20066;-81
2022/03/13 06:25:41;;;;;;;19.40;8.60;;;;;;;-2.13;92.26;99013.47;4991383;28;20065;-80
2022/03/13 06:28:07;;;;;;;16.93;7.83;;;;;;;-1.91;91.98;99014.63;5032246;28;20042;-81
2022/03/13 06:30:34;;;;;;;26.20;8.33;;;;;;;-1.75;92.00;99042.84;5022339;28;20103;-81
2022/03/13 06:33:01;;;;;;;20.03;8.77;;;;;;;-1.80;90.91;99016.50;4994729;28;20051;-80
2022/03/13 06:35:27;;;;;;;19.87;8.00;;;;;;;-1.68;90.51;99014.78;4998551;28;20078;-81
2022/03/13 06:37:55;;;;;;;14.73;7.80;;;;;;;-1.56;90.30;99018.38;4995551;28;20043;-81
2022/03/13 06:40:24;;;;;;;16.40;8.70;;;;;;;-1.46;90.40;99028.25;4994677;28;20391;-81
2022/03/13 06:42:53;;;;;;;17.20;7.87;;;;;;;-1.46;90.88;99030.03;5007401;28;20057;-81
2022/03/13 06:45:20;;;;;;;19.60;9.47;;;;;;;-1.67;90.42;99029.78;4995352;28;20058;-81
2022/03/13 06:47:49;;;;;;;17.20;8.53;;;;;;;-1.54;89.80;99025.28;5003921;28;20054;-81
2022/03/13 06:50:17;;;;;;;20.48;9.45;;;;;;;-1.55;88.57;99026.25;5000057;28;20474;-81
2022/03/13 06:52:45;;;;;;;18.67;9.07;;;;;;;-1.37;88.65;99045.41;5000242;28;20103;-82
2022/03/13 06:55:14;;;;;;;21.50;9.70;;;;;;;-1.48;89.19;99016.81;4994770;28;20058;-81
2022/03/13 06:57:43;;;;;;;20.67;10.07;;;;;;;-1.22;87.91;99045.22;5001093;28;20139;-81
2022/03/13 07:00:10;;;;;;;22.27;10.07;;;;;;;-1.20;86.76;99038.81;4990738;28;20053;-81
2022/03/13 07:02:37;;;;;;;19.30;9.90;;;;;;;-1.00;86.98;99058.69;5082518;28;20052;-81
2022/03/13 07:05:05;;;;;;;20.70;9.60;;;;;;;-0.81;85.97;99047.50;5004190;28;20125;-80
2022/03/13 07:07:37;;;;;;;18.33;7.97;;;;;;;-0.79;85.10;99037.53;4997178;28;20038;-80
2022/03/13 07:10:04;;;;;;;18.67;9.50;;;;;;;-0.63;83.35;99047.03;4998773;28;20046;-80
2022/03/13 07:12:32;;;;;;;17.63;8.60;;;;;;;-0.62;83.09;99046.09;4993786;28;20062;-80
2022/03/13 07:14:58;;;;;;;17.13;9.03;;;;;;;-0.49;82.81;99051.34;4989403;28;20050;-80
2022/03/13 07:17:25;;;;;;;16.97;9.47;;;;;;;-0.42;82.55;99055.25;4994710;28;20497;-78
2022/03/13 07:19:52;;;;;;;23.57;9.93;;;;;;;-0.30;82.05;99053.44;4992163;28;20070;-78
2022/03/13 07:22:19;;;;;;;19.07;9.70;;;;;;;-0.11;81.78;99050.22;4995284;28;20382;-77
2022/03/13 07:24:47;;;;;;;21.93;9.33;;;;;;;0.04;80.39;99046.31;4999981;28;20038;-82
2022/03/13 07:27:14;;;;;;;22.97;10.90;;;;;;;0.27;79.59;99057.88;5001554;28;20129;-81
2022/03/13 07:29:43;;;;;;;22.13;11.40;;;;;;;0.45;78.69;99052.91;5003202;28;20517;-81
2022/03/13 07:32:10;;;;;;;26.27;11.73;;;;;;;0.65;77.99;99048.59;4994981;28;20048;-80
2022/03/13 07:34:37;;;;;;;26.93;10.73;;;;;;;0.89;76.21;99042.22;5015579;28;20141;-81
2022/03/13 07:37:04;;;;;;;26.20;12.02;;;;;;;1.12;75.90;99037.63;4998341;28;20054;-80
2022/03/13 07:39:31;;;;;;;24.65;11.45;;;;;;;1.40;74.13;99049.56;4991362;28;20443;-81
2022/03/13 07:41:58;;;;;;;22.03;9.83;;;;;;;1.65;72.48;99044.78;4996136;28;20046;-81
2022/03/13 07:44:24;;;;;;;17.13;9.00;;;;;;;1.91;71.75;99034.53;4998002;28;20402;-81
2022/03/13 07:46:52;;;;;;;19.40;9.82;;;;;;;2.10;69.00;99031.06;4996864;28;20481;-81
2022/03/13 07:49:21;;;;;;;11.57;5.68;;;;;;;2.35;61.01;99017.34;4999305;28;20045;-80
2022/03/13 07:51:48;;;;;;;11.02;6.13;;;;;;;2.77;58.66;99022.53;5000939;28;20385;-81
2022/03/13 07:54:15;;;;;;;15.00;5.15;;;;;;;3.15;56.43;99039.69;5010322;28;20057;-80
2022/03/13 07:56:42;;;;;;;11.77;5.43;;;;;;;3.34;53.46;99030.78;5004091;28;20053;-81
2022/03/13 07:59:08;;;;;;;12.82;5.68;;;;;;;3.57;55.28;99034.03;4993784;28;20069;-81
2022/03/13 08:01:35;;;;;;;10.10;4.72;;;;;;;3.69;52.38;99022.13;5002112;28;20050;-81
2022/03/13 08:04:05;;;;;;;12.50;4.65;;;;;;;3.84;51.37;99027.03;4999924;28;20061;-81
2022/03/13 08:06:32;;;;;;;13.45;6.97;;;;;;;3.94;51.23;99024.31;4992340;28;20046;-81
2022/03/13 08:09:02;;;;;;;10.98;6.93;;;;;;;4.08;49.41;99026.56;5000876;28;20046;-81
2022/03/13 08:11:29;;;;;;;9.25;5.00;;;;;;;4.13;50.61;99026.13;5001891;28;20048;-81
2022/03/13 08:13:56;;;;;;;13.07;5.63;;;;;;;4.27;52.76;99033.69;4999198;28;20050;-81
2022/03/13 08:16:22;;;;;;;12.18;5.25;;;;;;;4.33;50.85;99024.19;5004207;28;20064;-81
2022/03/13 08:18:49;;;;;;;11.45;5.75;;;;;;;4.49;51.62;99047.78;5007424;28;20053;-81
2022/03/13 08:21:17;;;;;;;9.32;4.95;;;;;;;4.47;50.75;99026.41;5015891;28;20054;-81
2022/03/13 08:23:44;;;;;;;13.93;6.00;;;;;;;4.72;50.12;99043.69;5009000;28;20050;-82
2022/03/13 08:26:12;;;;;;;11.45;5.18;;;;;;;4.89;48.25;99050.13;5015399;28;20062;-81
2022/03/13 08:28:38;;;;;;;11.23;6.10;;;;;;;5.04;48.73;99046.88;5013603;28;20050;-82
2022/03/13 08:31:05;;;;;;;12.80;5.93;;;;;;;5.03;48.47;99045.19;5019128;28;20050;-81
2022/03/13 08:33:31;;;;;;;18.95;7.25;;;;;;;5.19;47.89;99050.75;5019196;28;20065;-82
2022/03/13 08:35:58;;;;;;;11.07;5.25;;;;;;;5.29;48.29;99046.13;5012305;28;20054;-81
2022/03/13 08:38:28;;;;;;;10.32;5.60;;;;;;;5.42;48.07;99052.97;4999687;28;20062;-81
2022/03/13 08:40:54;;;;;;;;;;;;;;;5.47;47.81;99047.97;5034110;28;20063;-80
2022/03/13 08:43:22;;;;;;;9.07;5.10;;;;;;;5.52;47.42;99037.56;4999530;28;19949;-82
2022/03/13 08:45:48;;;;;;;12.13;5.70;;;;;;;5.59;47.37;99041.34;4999661;28;20042;-81
2022/03/13 08:48:15;;;;;;;10.20;5.93;;;;;;;5.83;47.92;99048.78;4999733;28;20046;-81
2022/03/13 08:50:41;;;;;;;13.32;6.82;;;;;;;5.91;47.28;99034.50;4993911;28;20047;-81
2022/03/13 08:53:08;;;;;;;12.40;5.80;;;;;;;5.97;47.28;99036.59;4990526;28;20053;-81
2022/03/13 08:55:36;;;;;;;9.60;5.75;;;;;;;6.07;46.48;99041.91;4998113;28;20061;-81
2022/03/13 08:58:06;;;;;;;15.68;6.03;;;;;;;6.07;48.12;99027.53;4996289;28;20049;-81
2022/03/13 09:00:37;;;;;;;15.95;6.95;;;;;;;6.27;47.74;99039.81;5001530;28;20114;-82
2022/03/13 09:03:04;;;;;;;;;;;;;;;6.37;47.42;99035.16;4989913;28;20054;-82
2022/03/13 09:05:30;;;;;;;12.10;6.22;;;;;;;6.45;46.76;99031.63;4996851;28;20409;-82
2022/03/13 09:07:58;;;;;;;15.35;6.70;;;;;;;6.34;45.39;99016.56;4997031;28;20049;-81
2022/03/13 09:10:24;;;;;;;37.97;16.05;;;;;;;6.50;45.65;99028.44;4991081;28;20103;-82
2022/03/13 09:12:52;;;;;;;18.50;9.00;;;;;;;6.52;46.93;99010.25;4988437;28;20046;-81
2022/03/13 09:15:19;;;;;;;14.30;7.55;;;;;;;6.77;46.88;99024.66;4996632;28;20785;-81
2022/03/13 09:17:53;;;;;;;14.25;7.07;;;;;;;6.73;46.77;99016.06;4993116;28;20440;-82
2022/03/13 09:20:20;;;;;;;13.48;6.82;;;;;;;6.89;46.73;99020.66;4990824;28;20073;-82
2022/03/13 09:22:47;;;;;;;16.42;8.05;;;;;;;6.98;46.97;99021.50;4989005;28;20060;-82
2022/03/13 09:25:13;;;;;;;15.32;7.22;;;;;;;6.95;45.36;99016.44;5004615;28;20054;-82
2022/03/13 09:27:41;;;;;;;12.27;6.68;;;;;;;7.11;46.45;99012.94;4990007;28;20046;-82
2022/03/13 09:30:10;;;;;;;10.82;7.07;;;;;;;7.19;46.35;99012.09;4993167;28;20068;-83
2022/03/13 09:32:37;;;;;;;20.23;6.18;;;;;;;7.25;46.40;99000.59;4992838;28;20049;-82
2022/03/13 09:35:04;;;;;;;15.13;7.97;;;;;;;7.47;46.22;98992.84;4993177;28;20061;-82
2022/03/13 09:37:35;;;;;;;12.95;6.90;;;;;;;7.64;45.67;99009.94;4990090;28;20057;-83
2022/03/13 09:40:01;;;;;;;14.52;6.68;;;;;;;7.60;45.62;99014.81;4994090;28;20053;-82
2022/03/13 09:42:28;;;;;;;14.00;6.93;;;;;;;7.70;45.61;99015.50;4998287;28;20056;-82
2022/03/13 09:44:54;;;;;;;14.85;7.00;;;;;;;7.83;46.87;99014.13;4988356;28;20046;-80
2022/03/13 09:47:22;;;;;;;15.15;8.15;;;;;;;7.94;46.79;98997.53;5042801;28;20055;-81
2022/03/13 09:49:50;;;;;;;16.05;7.97;;;;;;;8.08;45.27;99004.09;5000109;28;20042;-81
2022/03/13 09:52:17;;;;;;;18.08;8.35;;;;;;;8.17;45.27;99004.94;4988407;28;20054;-80
2022/03/13 09:54:44;;;;;;;16.00;9.10;;;;;;;8.24;45.15;99012.19;4997110;28;20064;-82
2022/03/13 09:57:10;;;;;;;19.77;8.80;;;;;;;8.26;45.76;99001.19;4994472;28;20505;-82
2022/03/13 09:59:37;;;;;;;21.65;10.20;;;;;;;8.35;46.50;98994.72;4987274;28;20065;-82
2022/03/13 10:02:05;;;;;;;22.10;10.32;;;;;;;8.48;45.89;98995.03;4989941;28;20046;-82
2022/03/13 10:04:35;;;;;;;17.77;8.75;;;;;;;8.55;44.62;98997.03;5005441;28;20050;-83
2022/03/13 10:07:04;;;;;;;19.23;9.40;;;;;;;8.68;45.02;99000.88;5006941;28;20460;-83
2022/03/13 10:09:33;;;;;;;17.42;8.90;;;;;;;8.73;44.32;98997.66;5007398;28;20046;-82
2022/03/13 10:12:11;;;;;;;16.00;8.60;;;;;;;8.75;46.39;98984.75;4997973;28;20074;-83
2022/03/13 10:14:39;;;;;;;16.95;8.98;;;;;;;8.67;44.87;98982.94;4993838;28;20042;-82
2022/03/13 10:17:26;;;;;;;19.17;10.00;;;;;;;8.70;44.80;98986.31;5004889;28;20173;-83
2022/03/13 10:19:55;;;;;;;21.83;9.88;;;;;;;8.92;45.02;98985.50;5006594;28;20429;-83
2022/03/13 10:22:29;;;;;;;20.20;8.82;;;;;;;8.98;43.65;98975.81;5000904;28;20069;-83
2022/03/13 10:24:56;;;;;;;21.52;9.68;;;;;;;8.96;43.62;98967.84;4995175;28;20393;-82
2022/03/13 10:27:23;;;;;;;17.67;9.63;;;;;;;9.15;44.08;98980.13;4994804;28;20489;-83
2022/03/13 10:29:50;;;;;;;23.48;9.45;;;;;;;9.20;44.59;98968.72;5003741;28;20552;-82
2022/03/13 10:32:16;;;;;;;19.98;9.27;;;;;;;9.34;43.77;98976.06;4987977;28;20057;-82
2022/03/13 10:34:56;;;;;;;18.35;9.73;;;;;;;9.50;42.97;98966.09;4987222;28;20084;-82
2022/03/13 10:37:34;;;;;;;24.63;10.10;;;;;;;9.53;43.51;98966.59;5004373;28;20134;-82
2022/03/13 10:40:15;;;;;;;20.90;10.93;;;;;;;9.65;43.62;98939.84;4995679;28;20055;-82
2022/03/13 10:42:44;;;;;;;25.50;11.15;;;;;;;9.80;43.08;98958.88;5002462;28;20038;-83
2022/03/13 10:45:31;;;;;;;23.70;11.80;;;;;;;9.95;42.75;98955.31;5000457;28;20057;-83
2022/03/13 10:48:18;;;;;;;26.70;11.40;;;;;;;9.88;42.27;98926.19;4991036;28;20056;-83
2022/03/13 10:50:47;;;;;;;22.65;10.48;;;;;;;10.09;43.16;98949.06;4991067;28;20046;-83
2022/03/13 10:53:18;;;;;;;23.40;11.82;;;;;;;10.18;42.67;98950.66;4989823;28;20053;-83
2022/03/13 10:55:45;;;;;;;20.98;10.82;;;;;;;10.23;42.80;98937.34;5002316;28;20052;-83
2022/03/13 10:58:12;;;;;;;22.95;12.00;;;;;;;10.31;42.75;98938.28;4997523;28;20046;-83
2022/03/13 11:00:39;;;;;;;26.30;12.93;;;;;;;10.33;41.87;98950.69;4999314;28;20046;-82
2022/03/13 11:03:11;;;;;;;28.00;14.20;;;;;;;10.31;42.34;98930.13;5014958;28;20104;-85
2022/03/13 11:05:41;;;;;;;27.48;12.63;;;;;;;10.38;41.93;98937.34;4994364;28;20054;-85
2022/03/13 11:08:10;;;;;;;28.58;13.63;;;;;;;10.50;41.60;98935.00;4990630;28;20072;-83
2022/03/13 11:10:37;;;;;;;24.75;13.20;;;;;;;10.70;41.45;98928.97;4999321;28;20145;-85
2022/03/13 11:13:05;;;;;;;26.17;12.80;;;;;;;10.79;41.67;98931.38;5001942;28;20080;-84
2022/03/13 11:15:35;;;;;;;25.27;13.23;;;;;;;10.89;42.46;98913.91;5001147;28;20481;-84
2022/03/13 11:18:09;;;;;;;25.70;12.65;;;;;;;10.99;41.12;98911.72;5000036;28;20365;-83
2022/03/13 11:20:42;;;;;;;26.23;12.75;;;;;;;11.04;40.88;98911.97;5025122;28;20054;-84
2022/03/13 11:23:13;;;;;;;31.38;14.90;;;;;;;11.06;40.73;98914.50;4998098;28;20046;-84
2022/03/13 11:25:46;;;;;;;27.48;13.35;;;;;;;11.12;41.76;98911.00;4996836;28;20084;-84
2022/03/13 11:28:16;;;;;;;23.65;13.15;;;;;;;11.23;41.10;98898.75;5006002;28;20186;-84
2022/03/13 11:30:43;;;;;;;24.65;12.77;;;;;;;11.53;39.80;98915.75;5002130;28;20134;-83